sensor_id;sensor_type;location;lat;lon;timestamp;P1;durP1;ratioP1;P2;durP2;ratioP2
7160;SDS011;3622;53.576;9.978;2022-11-15T00:00:46;43.07;;;22.83;;
7160;SDS011;3622;53.576;9.978;2022-11-15T00:03:13;41.03;;;19.80;;
7160;SDS011;3622;53.576;9.978;2022-11-15T00:05:40;38.33;;;20.30;;
7160;SDS011;3622;53.576;9.978;2022-11-15T00:08:06;32.20;;;16.00;;
7160;SDS011;3622;53.576;9.978;2022-11-15T00:10:32;42.43;;;21.27;;
7160;SDS011;3622;53.576;9.978;2022-11-15T00:12:57;41.83;;;20.53;;
7160;SDS011;3622;53.576;9.978;2022-11-15T00:15:23;46.53;;;21.33;;
7160;SDS011;3622;53.576;9.978;2022-11-15T00:17:50;46.30;;;23.00;;
7160;SDS011;3622;53.576;9.978;2022-11-15T00:20:16;46.97;;;20.83;;
7160;SDS011;3622;53.576;9.978;2022-11-15T00:22:42;43.80;;;22.00;;
7160;SDS011;3622;53.576;9.978;2022-11-15T00:25:08;45.83;;;21.83;;
7160;SDS011;3622;53.576;9.978;2022-11-15T00:27:34;39.43;;;20.63;;
7160;SDS011;3622;53.576;9.978;2022-11-15T00:30:00;38.80;;;19.20;;
7160;SDS011;3622;53.576;9.978;2022-11-15T00:32:30;43.73;;;21.50;;
7160;SDS011;3622;53.576;9.978;2022-11-15T00:34:56;47.33;;;22.73;;
7160;SDS011;3622;53.576;9.978;2022-11-15T00:37:22;40.33;;;20.30;;
7160;SDS011;3622;53.576;9.978;2022-11-15T00:39:48;46.93;;;21.33;;
7160;SDS011;3622;53.576;9.978;2022-11-15T00:42:14;41.77;;;19.60;;
7160;SDS011;3622;53.576;9.978;2022-11-15T00:44:40;44.90;;;21.40;;
7160;SDS011;3622;53.576;9.978;2022-11-15T00:47:06;41.50;;;20.73;;
7160;SDS011;3622;53.576;9.978;2022-11-15T00:49:32;39.57;;;19.77;;
7160;SDS011;3622;53.576;9.978;2022-11-15T00:51:58;54.60;;;26.60;;
7160;SDS011;3622;53.576;9.978;2022-11-15T00:54:24;40.00;;;20.57;;
7160;SDS011;3622;53.576;9.978;2022-11-15T00:56:50;62.10;;;28.27;;
7160;SDS011;3622;53.576;9.978;2022-11-15T00:59:16;89.30;;;42.13;;
7160;SDS011;3622;53.576;9.978;2022-11-15T01:01:42;40.33;;;20.17;;
7160;SDS011;3622;53.576;9.978;2022-11-15T01:04:08;71.40;;;36.33;;
7160;SDS011;3622;53.576;9.978;2022-11-15T01:06:34;43.07;;;20.43;;
7160;SDS011;3622;53.576;9.978;2022-11-15T01:09:00;35.83;;;17.90;;
7160;SDS011;3622;53.576;9.978;2022-11-15T01:11:26;43.43;;;21.40;;
7160;SDS011;3622;53.576;9.978;2022-11-15T01:13:52;43.03;;;20.50;;
7160;SDS011;3622;53.576;9.978;2022-11-15T01:16:18;47.20;;;21.50;;
7160;SDS011;3622;53.576;9.978;2022-11-15T01:18:44;44.17;;;21.00;;
7160;SDS011;3622;53.576;9.978;2022-11-15T01:21:14;45.27;;;21.20;;
7160;SDS011;3622;53.576;9.978;2022-11-15T01:23:40;41.93;;;19.93;;
7160;SDS011;3622;53.576;9.978;2022-11-15T01:26:09;46.27;;;20.43;;
7160;SDS011;3622;53.576;9.978;2022-11-15T01:28:36;42.40;;;21.47;;
7160;SDS011;3622;53.576;9.978;2022-11-15T01:31:03;40.33;;;19.73;;
7160;SDS011;3622;53.576;9.978;2022-11-15T01:33:29;45.87;;;22.80;;
7160;SDS011;3622;53.576;9.978;2022-11-15T01:35:55;41.70;;;20.13;;
7160;SDS011;3622;53.576;9.978;2022-11-15T01:38:22;47.63;;;21.37;;
7160;SDS011;3622;53.576;9.978;2022-11-15T01:40:48;52.33;;;22.23;;
7160;SDS011;3622;53.576;9.978;2022-11-15T01:45:51;44.37;;;21.23;;
7160;SDS011;3622;53.576;9.978;2022-11-15T01:48:18;41.90;;;21.13;;
7160;SDS011;3622;53.576;9.978;2022-11-15T01:50:44;45.60;;;21.80;;
7160;SDS011;3622;53.576;9.978;2022-11-15T01:53:10;41.93;;;20.20;;
7160;SDS011;3622;53.576;9.978;2022-11-15T01:55:36;44.80;;;21.40;;
7160;SDS011;3622;53.576;9.978;2022-11-15T01:58:03;46.23;;;20.47;;
7160;SDS011;3622;53.576;9.978;2022-11-15T02:00:30;42.00;;;20.70;;
7160;SDS011;3622;53.576;9.978;2022-11-15T02:02:56;42.77;;;20.93;;
7160;SDS011;3622;53.576;9.978;2022-11-15T02:05:22;41.20;;;19.70;;
7160;SDS011;3622;53.576;9.978;2022-11-15T02:07:48;40.93;;;19.33;;
7160;SDS011;3622;53.576;9.978;2022-11-15T02:10:17;43.47;;;21.47;;
7160;SDS011;3622;53.576;9.978;2022-11-15T02:12:43;42.77;;;20.43;;
7160;SDS011;3622;53.576;9.978;2022-11-15T02:15:09;41.37;;;19.30;;
7160;SDS011;3622;53.576;9.978;2022-11-15T02:17:46;44.03;;;20.43;;
7160;SDS011;3622;53.576;9.978;2022-11-15T02:33:14;44.43;;;19.50;;
7160;SDS011;3622;53.576;9.978;2022-11-15T02:35:53;41.20;;;19.20;;
7160;SDS011;3622;53.576;9.978;2022-11-15T02:43:41;47.67;;;20.83;;
7160;SDS011;3622;53.576;9.978;2022-11-15T02:46:39;45.27;;;21.60;;
7160;SDS011;3622;53.576;9.978;2022-11-15T02:49:25;38.77;;;19.67;;
7160;SDS011;3622;53.576;9.978;2022-11-15T02:51:54;45.73;;;20.80;;
7160;SDS011;3622;53.576;9.978;2022-11-15T02:54:22;41.60;;;20.87;;
7160;SDS011;3622;53.576;9.978;2022-11-15T02:56:49;40.63;;;20.77;;
7160;SDS011;3622;53.576;9.978;2022-11-15T02:59:21;40.43;;;19.50;;
7160;SDS011;3622;53.576;9.978;2022-11-15T03:04:19;47.50;;;21.13;;
7160;SDS011;3622;53.576;9.978;2022-11-15T03:09:21;46.03;;;20.10;;
7160;SDS011;3622;53.576;9.978;2022-11-15T03:11:50;36.10;;;18.70;;
7160;SDS011;3622;53.576;9.978;2022-11-15T03:14:45;37.97;;;18.73;;
7160;SDS011;3622;53.576;9.978;2022-11-15T03:17:16;38.27;;;19.80;;
7160;SDS011;3622;53.576;9.978;2022-11-15T03:19:45;36.93;;;19.60;;
7160;SDS011;3622;53.576;9.978;2022-11-15T03:22:14;49.73;;;20.47;;
7160;SDS011;3622;53.576;9.978;2022-11-15T03:24:41;40.33;;;19.33;;
7160;SDS011;3622;53.576;9.978;2022-11-15T03:27:08;43.90;;;19.70;;
7160;SDS011;3622;53.576;9.978;2022-11-15T03:29:36;44.53;;;19.60;;
7160;SDS011;3622;53.576;9.978;2022-11-15T03:32:05;39.73;;;19.67;;
7160;SDS011;3622;53.576;9.978;2022-11-15T03:34:53;40.63;;;19.50;;
7160;SDS011;3622;53.576;9.978;2022-11-15T03:37:22;34.97;;;18.47;;
7160;SDS011;3622;53.576;9.978;2022-11-15T03:39:48;33.37;;;18.63;;
7160;SDS011;3622;53.576;9.978;2022-11-15T03:42:22;36.33;;;17.30;;
7160;SDS011;3622;53.576;9.978;2022-11-15T03:47:33;32.37;;;18.03;;
7160;SDS011;3622;53.576;9.978;2022-11-15T03:50:04;46.30;;;18.80;;
7160;SDS011;3622;53.576;9.978;2022-11-15T03:52:33;33.83;;;17.13;;
7160;SDS011;3622;53.576;9.978;2022-11-15T03:55:00;37.80;;;18.57;;
7160;SDS011;3622;53.576;9.978;2022-11-15T03:57:26;46.30;;;22.40;;
7160;SDS011;3622;53.576;9.978;2022-11-15T03:59:52;43.13;;;19.33;;
7160;SDS011;3622;53.576;9.978;2022-11-15T04:02:18;35.73;;;18.00;;
7160;SDS011;3622;53.576;9.978;2022-11-15T04:04:44;36.67;;;18.63;;
7160;SDS011;3622;53.576;9.978;2022-11-15T04:07:10;42.63;;;19.00;;
7160;SDS011;3622;53.576;9.978;2022-11-15T04:09:36;28.30;;;15.60;;
7160;SDS011;3622;53.576;9.978;2022-11-15T04:12:22;31.17;;;16.80;;
7160;SDS011;3622;53.576;9.978;2022-11-15T04:14:58;31.83;;;16.80;;
7160;SDS011;3622;53.576;9.978;2022-11-15T04:17:53;32.13;;;17.40;;
7160;SDS011;3622;53.576;9.978;2022-11-15T04:20:21;37.50;;;17.03;;
7160;SDS011;3622;53.576;9.978;2022-11-15T04:23:08;30.10;;;16.17;;
7160;SDS011;3622;53.576;9.978;2022-11-15T04:25:54;30.90;;;16.97;;
7160;SDS011;3622;53.576;9.978;2022-11-15T04:28:20;31.40;;;16.70;;
7160;SDS011;3622;53.576;9.978;2022-11-15T04:30:46;29.33;;;15.77;;
7160;SDS011;3622;53.576;9.978;2022-11-15T04:33:13;35.17;;;15.73;;
7160;SDS011;3622;53.576;9.978;2022-11-15T04:35:39;31.27;;;16.23;;
7160;SDS011;3622;53.576;9.978;2022-11-15T04:38:05;32.10;;;15.60;;
7160;SDS011;3622;53.576;9.978;2022-11-15T04:40:32;28.73;;;16.10;;
7160;SDS011;3622;53.576;9.978;2022-11-15T04:42:58;29.27;;;15.83;;
7160;SDS011;3622;53.576;9.978;2022-11-15T04:45:24;29.23;;;16.20;;
7160;SDS011;3622;53.576;9.978;2022-11-15T04:47:50;28.80;;;15.17;;
7160;SDS011;3622;53.576;9.978;2022-11-15T04:50:16;28.13;;;15.40;;
7160;SDS011;3622;53.576;9.978;2022-11-15T04:52:43;28.50;;;14.37;;
7160;SDS011;3622;53.576;9.978;2022-11-15T04:55:10;31.83;;;15.40;;
7160;SDS011;3622;53.576;9.978;2022-11-15T04:57:36;30.43;;;15.67;;
7160;SDS011;3622;53.576;9.978;2022-11-15T05:00:06;34.13;;;16.13;;
7160;SDS011;3622;53.576;9.978;2022-11-15T05:02:33;33.60;;;15.90;;
7160;SDS011;3622;53.576;9.978;2022-11-15T05:05:18;28.70;;;15.80;;
7160;SDS011;3622;53.576;9.978;2022-11-15T05:07:44;26.43;;;14.80;;
7160;SDS011;3622;53.576;9.978;2022-11-15T05:10:10;28.13;;;15.70;;
7160;SDS011;3622;53.576;9.978;2022-11-15T05:12:36;26.60;;;14.57;;
7160;SDS011;3622;53.576;9.978;2022-11-15T05:15:02;28.27;;;15.23;;
7160;SDS011;3622;53.576;9.978;2022-11-15T05:17:28;31.20;;;16.40;;
7160;SDS011;3622;53.576;9.978;2022-11-15T05:19:54;27.87;;;15.30;;
7160;SDS011;3622;53.576;9.978;2022-11-15T05:22:20;27.37;;;14.10;;
7160;SDS011;3622;53.576;9.978;2022-11-15T05:24:46;24.97;;;14.13;;
7160;SDS011;3622;53.576;9.978;2022-11-15T05:27:12;27.30;;;14.37;;
7160;SDS011;3622;53.576;9.978;2022-11-15T05:29:38;36.90;;;18.50;;
7160;SDS011;3622;53.576;9.978;2022-11-15T05:32:06;28.07;;;15.10;;
7160;SDS011;3622;53.576;9.978;2022-11-15T05:34:34;30.00;;;15.67;;
7160;SDS011;3622;53.576;9.978;2022-11-15T05:37:00;34.13;;;17.17;;
7160;SDS011;3622;53.576;9.978;2022-11-15T05:39:26;25.97;;;15.00;;
7160;SDS011;3622;53.576;9.978;2022-11-15T05:41:53;31.03;;;14.83;;
7160;SDS011;3622;53.576;9.978;2022-11-15T05:44:21;29.70;;;15.93;;
7160;SDS011;3622;53.576;9.978;2022-11-15T05:46:47;29.23;;;15.87;;
7160;SDS011;3622;53.576;9.978;2022-11-15T05:49:14;39.77;;;20.17;;
7160;SDS011;3622;53.576;9.978;2022-11-15T05:51:42;24.83;;;14.17;;
7160;SDS011;3622;53.576;9.978;2022-11-15T05:54:10;23.97;;;13.30;;
7160;SDS011;3622;53.576;9.978;2022-11-15T05:56:36;23.80;;;13.50;;
7160;SDS011;3622;53.576;9.978;2022-11-15T05:59:02;25.57;;;14.50;;
7160;SDS011;3622;53.576;9.978;2022-11-15T06:01:28;25.70;;;14.40;;
7160;SDS011;3622;53.576;9.978;2022-11-15T06:03:55;27.33;;;13.93;;
7160;SDS011;3622;53.576;9.978;2022-11-15T06:06:21;25.80;;;13.50;;
7160;SDS011;3622;53.576;9.978;2022-11-15T06:08:47;28.13;;;14.47;;
7160;SDS011;3622;53.576;9.978;2022-11-15T06:11:13;24.60;;;14.13;;
7160;SDS011;3622;53.576;9.978;2022-11-15T06:13:39;24.57;;;13.70;;
7160;SDS011;3622;53.576;9.978;2022-11-15T06:16:05;21.90;;;13.10;;
7160;SDS011;3622;53.576;9.978;2022-11-15T06:18:32;22.20;;;13.50;;
7160;SDS011;3622;53.576;9.978;2022-11-15T06:20:59;25.07;;;13.00;;
7160;SDS011;3622;53.576;9.978;2022-11-15T06:23:25;21.67;;;12.00;;
7160;SDS011;3622;53.576;9.978;2022-11-15T06:25:51;23.07;;;13.53;;
7160;SDS011;3622;53.576;9.978;2022-11-15T06:28:17;26.23;;;13.13;;
7160;SDS011;3622;53.576;9.978;2022-11-15T06:30:43;22.10;;;12.77;;
7160;SDS011;3622;53.576;9.978;2022-11-15T06:33:09;26.10;;;14.17;;
7160;SDS011;3622;53.576;9.978;2022-11-15T06:35:35;22.50;;;13.10;;
7160;SDS011;3622;53.576;9.978;2022-11-15T06:38:05;24.00;;;13.00;;
7160;SDS011;3622;53.576;9.978;2022-11-15T06:40:35;24.40;;;13.43;;
7160;SDS011;3622;53.576;9.978;2022-11-15T06:43:01;25.50;;;14.67;;
7160;SDS011;3622;53.576;9.978;2022-11-15T06:45:28;21.20;;;13.50;;
7160;SDS011;3622;53.576;9.978;2022-11-15T06:47:54;31.10;;;15.53;;
7160;SDS011;3622;53.576;9.978;2022-11-15T06:50:20;24.87;;;12.87;;
7160;SDS011;3622;53.576;9.978;2022-11-15T06:52:46;22.60;;;14.00;;
7160;SDS011;3622;53.576;9.978;2022-11-15T06:55:12;19.53;;;13.37;;
7160;SDS011;3622;53.576;9.978;2022-11-15T06:57:42;21.27;;;12.70;;
7160;SDS011;3622;53.576;9.978;2022-11-15T07:00:11;26.40;;;13.90;;
7160;SDS011;3622;53.576;9.978;2022-11-15T07:02:37;23.13;;;13.33;;
7160;SDS011;3622;53.576;9.978;2022-11-15T07:05:03;24.50;;;13.77;;
7160;SDS011;3622;53.576;9.978;2022-11-15T07:07:29;23.30;;;13.80;;
7160;SDS011;3622;53.576;9.978;2022-11-15T07:09:55;25.23;;;13.80;;
7160;SDS011;3622;53.576;9.978;2022-11-15T07:12:21;32.20;;;18.10;;
7160;SDS011;3622;53.576;9.978;2022-11-15T07:14:47;28.83;;;13.87;;
7160;SDS011;3622;53.576;9.978;2022-11-15T07:17:13;25.77;;;13.40;;
7160;SDS011;3622;53.576;9.978;2022-11-15T07:19:39;34.43;;;18.50;;
7160;SDS011;3622;53.576;9.978;2022-11-15T07:22:05;25.57;;;14.77;;
7160;SDS011;3622;53.576;9.978;2022-11-15T07:24:31;26.80;;;14.07;;
7160;SDS011;3622;53.576;9.978;2022-11-15T07:26:57;24.20;;;14.57;;
7160;SDS011;3622;53.576;9.978;2022-11-15T07:29:23;23.33;;;12.63;;
7160;SDS011;3622;53.576;9.978;2022-11-15T07:31:49;23.57;;;13.90;;
7160;SDS011;3622;53.576;9.978;2022-11-15T07:34:15;22.23;;;13.10;;
7160;SDS011;3622;53.576;9.978;2022-11-15T07:36:41;19.63;;;12.70;;
7160;SDS011;3622;53.576;9.978;2022-11-15T07:39:07;26.10;;;14.70;;
7160;SDS011;3622;53.576;9.978;2022-11-15T07:41:34;23.30;;;14.07;;
7160;SDS011;3622;53.576;9.978;2022-11-15T07:44:00;26.60;;;14.20;;
7160;SDS011;3622;53.576;9.978;2022-11-15T07:46:26;25.67;;;13.77;;
7160;SDS011;3622;53.576;9.978;2022-11-15T07:48:52;28.63;;;13.13;;
7160;SDS011;3622;53.576;9.978;2022-11-15T07:51:19;26.43;;;13.30;;
7160;SDS011;3622;53.576;9.978;2022-11-15T07:53:45;24.03;;;13.37;;
7160;SDS011;3622;53.576;9.978;2022-11-15T07:56:11;22.60;;;13.27;;
7160;SDS011;3622;53.576;9.978;2022-11-15T07:58:37;24.90;;;13.70;;
7160;SDS011;3622;53.576;9.978;2022-11-15T08:01:07;20.67;;;12.57;;
7160;SDS011;3622;53.576;9.978;2022-11-15T08:03:34;21.67;;;13.03;;
7160;SDS011;3622;53.576;9.978;2022-11-15T08:06:00;23.63;;;12.57;;
7160;SDS011;3622;53.576;9.978;2022-11-15T08:08:26;21.60;;;11.80;;
7160;SDS011;3622;53.576;9.978;2022-11-15T08:10:52;27.23;;;13.60;;
7160;SDS011;3622;53.576;9.978;2022-11-15T08:13:18;24.37;;;12.73;;
7160;SDS011;3622;53.576;9.978;2022-11-15T08:15:44;27.07;;;13.27;;
7160;SDS011;3622;53.576;9.978;2022-11-15T08:18:11;23.17;;;14.00;;
7160;SDS011;3622;53.576;9.978;2022-11-15T08:20:37;21.57;;;13.00;;
7160;SDS011;3622;53.576;9.978;2022-11-15T08:23:03;21.87;;;11.87;;
7160;SDS011;3622;53.576;9.978;2022-11-15T08:25:30;22.50;;;13.20;;
7160;SDS011;3622;53.576;9.978;2022-11-15T08:27:57;23.97;;;13.67;;
7160;SDS011;3622;53.576;9.978;2022-11-15T08:30:23;28.03;;;13.00;;
7160;SDS011;3622;53.576;9.978;2022-11-15T08:32:49;25.90;;;13.67;;
7160;SDS011;3622;53.576;9.978;2022-11-15T08:35:16;24.63;;;13.47;;
7160;SDS011;3622;53.576;9.978;2022-11-15T08:37:42;23.00;;;12.70;;
7160;SDS011;3622;53.576;9.978;2022-11-15T08:40:08;20.50;;;12.50;;
7160;SDS011;3622;53.576;9.978;2022-11-15T08:42:34;22.23;;;12.70;;
7160;SDS011;3622;53.576;9.978;2022-11-15T08:45:00;24.83;;;14.50;;
7160;SDS011;3622;53.576;9.978;2022-11-15T08:47:26;24.93;;;13.90;;
7160;SDS011;3622;53.576;9.978;2022-11-15T08:49:52;20.83;;;13.10;;
7160;SDS011;3622;53.576;9.978;2022-11-15T08:52:18;23.33;;;13.03;;
7160;SDS011;3622;53.576;9.978;2022-11-15T08:54:44;24.07;;;12.40;;
7160;SDS011;3622;53.576;9.978;2022-11-15T08:57:10;24.40;;;14.30;;
7160;SDS011;3622;53.576;9.978;2022-11-15T08:59:36;21.73;;;12.33;;
7160;SDS011;3622;53.576;9.978;2022-11-15T09:02:03;22.80;;;12.90;;
7160;SDS011;3622;53.576;9.978;2022-11-15T09:04:29;21.43;;;12.77;;
7160;SDS011;3622;53.576;9.978;2022-11-15T09:06:55;21.97;;;13.03;;
7160;SDS011;3622;53.576;9.978;2022-11-15T09:09:21;22.93;;;12.57;;
7160;SDS011;3622;53.576;9.978;2022-11-15T09:11:47;18.73;;;11.87;;
7160;SDS011;3622;53.576;9.978;2022-11-15T09:14:14;21.63;;;12.90;;
7160;SDS011;3622;53.576;9.978;2022-11-15T09:16:40;22.60;;;12.73;;
7160;SDS011;3622;53.576;9.978;2022-11-15T09:19:06;22.23;;;12.87;;
7160;SDS011;3622;53.576;9.978;2022-11-15T09:21:32;23.53;;;13.40;;
7160;SDS011;3622;53.576;9.978;2022-11-15T09:23:58;19.73;;;12.10;;
7160;SDS011;3622;53.576;9.978;2022-11-15T09:26:24;22.17;;;12.30;;
7160;SDS011;3622;53.576;9.978;2022-11-15T09:28:50;21.83;;;13.37;;
7160;SDS011;3622;53.576;9.978;2022-11-15T09:31:16;24.20;;;12.33;;
7160;SDS011;3622;53.576;9.978;2022-11-15T09:33:43;20.67;;;11.90;;
7160;SDS011;3622;53.576;9.978;2022-11-15T09:36:09;20.77;;;12.47;;
7160;SDS011;3622;53.576;9.978;2022-11-15T09:38:36;22.37;;;11.77;;
7160;SDS011;3622;53.576;9.978;2022-11-15T09:49:06;24.50;;;13.10;;
7160;SDS011;3622;53.576;9.978;2022-11-15T09:51:34;24.23;;;13.93;;
7160;SDS011;3622;53.576;9.978;2022-11-15T09:56:27;22.17;;;12.20;;
7160;SDS011;3622;53.576;9.978;2022-11-15T10:01:38;19.53;;;12.07;;
7160;SDS011;3622;53.576;9.978;2022-11-15T10:04:06;20.00;;;12.10;;
7160;SDS011;3622;53.576;9.978;2022-11-15T10:06:32;20.67;;;13.37;;
7160;SDS011;3622;53.576;9.978;2022-11-15T10:09:01;31.23;;;12.97;;
7160;SDS011;3622;53.576;9.978;2022-11-15T10:11:31;24.00;;;12.17;;
7160;SDS011;3622;53.576;9.978;2022-11-15T10:13:59;20.90;;;12.10;;
7160;SDS011;3622;53.576;9.978;2022-11-15T10:24:12;19.90;;;12.13;;
7160;SDS011;3622;53.576;9.978;2022-11-15T10:26:38;19.43;;;11.20;;
7160;SDS011;3622;53.576;9.978;2022-11-15T10:29:04;17.87;;;11.63;;
7160;SDS011;3622;53.576;9.978;2022-11-15T10:31:30;18.00;;;11.60;;
7160;SDS011;3622;53.576;9.978;2022-11-15T10:33:59;20.20;;;11.57;;
7160;SDS011;3622;53.576;9.978;2022-11-15T10:36:29;24.70;;;12.60;;
7160;SDS011;3622;53.576;9.978;2022-11-15T10:38:56;17.00;;;11.10;;
7160;SDS011;3622;53.576;9.978;2022-11-15T10:44:23;16.93;;;11.67;;
7160;SDS011;3622;53.576;9.978;2022-11-15T10:46:41;18.70;;;11.00;;
7160;SDS011;3622;53.576;9.978;2022-11-15T10:51:41;19.63;;;11.17;;
7160;SDS011;3622;53.576;9.978;2022-11-15T10:54:07;17.43;;;10.33;;
7160;SDS011;3622;53.576;9.978;2022-11-15T10:56:36;19.50;;;12.13;;
7160;SDS011;3622;53.576;9.978;2022-11-15T10:59:02;16.37;;;10.80;;
7160;SDS011;3622;53.576;9.978;2022-11-15T11:01:29;18.73;;;11.03;;
7160;SDS011;3622;53.576;9.978;2022-11-15T11:03:59;20.77;;;13.97;;
7160;SDS011;3622;53.576;9.978;2022-11-15T11:06:26;17.63;;;10.43;;
7160;SDS011;3622;53.576;9.978;2022-11-15T11:09:22;19.80;;;11.20;;
7160;SDS011;3622;53.576;9.978;2022-11-15T11:11:45;16.07;;;10.60;;
7160;SDS011;3622;53.576;9.978;2022-11-15T11:16:49;18.33;;;12.10;;
7160;SDS011;3622;53.576;9.978;2022-11-15T11:19:19;17.83;;;10.53;;
7160;SDS011;3622;53.576;9.978;2022-11-15T11:21:51;15.40;;;10.27;;
7160;SDS011;3622;53.576;9.978;2022-11-15T11:29:48;14.47;;;9.60;;
7160;SDS011;3622;53.576;9.978;2022-11-15T11:34:48;14.83;;;10.20;;
7160;SDS011;3622;53.576;9.978;2022-11-15T11:37:35;20.13;;;11.40;;
7160;SDS011;3622;53.576;9.978;2022-11-15T11:40:14;17.20;;;10.47;;
7160;SDS011;3622;53.576;9.978;2022-11-15T11:42:53;19.10;;;10.70;;
7160;SDS011;3622;53.576;9.978;2022-11-15T11:48:01;16.47;;;9.33;;
7160;SDS011;3622;53.576;9.978;2022-11-15T11:50:30;15.80;;;10.10;;
7160;SDS011;3622;53.576;9.978;2022-11-15T11:53:11;18.87;;;10.00;;
7160;SDS011;3622;53.576;9.978;2022-11-15T11:55:45;16.30;;;10.53;;
7160;SDS011;3622;53.576;9.978;2022-11-15T11:58:33;18.20;;;9.87;;
7160;SDS011;3622;53.576;9.978;2022-11-15T12:03:40;17.43;;;10.03;;
7160;SDS011;3622;53.576;9.978;2022-11-15T12:06:17;14.93;;;10.30;;
7160;SDS011;3622;53.576;9.978;2022-11-15T12:08:46;20.93;;;10.07;;
7160;SDS011;3622;53.576;9.978;2022-11-15T12:11:28;15.73;;;10.13;;
7160;SDS011;3622;53.576;9.978;2022-11-15T12:13:58;15.33;;;9.60;;
7160;SDS011;3622;53.576;9.978;2022-11-15T12:16:29;18.27;;;9.27;;
7160;SDS011;3622;53.576;9.978;2022-11-15T12:18:56;16.30;;;10.30;;
7160;SDS011;3622;53.576;9.978;2022-11-15T12:23:53;15.77;;;9.30;;
7160;SDS011;3622;53.576;9.978;2022-11-15T12:26:21;14.30;;;9.53;;
7160;SDS011;3622;53.576;9.978;2022-11-15T12:33:47;15.07;;;10.00;;
7160;SDS011;3622;53.576;9.978;2022-11-15T12:38:53;13.90;;;9.03;;
7160;SDS011;3622;53.576;9.978;2022-11-15T12:41:20;18.50;;;9.20;;
7160;SDS011;3622;53.576;9.978;2022-11-15T12:43:47;19.60;;;9.40;;
7160;SDS011;3622;53.576;9.978;2022-11-15T12:46:58;16.23;;;10.70;;
7160;SDS011;3622;53.576;9.978;2022-11-15T13:02:32;13.80;;;8.30;;
7160;SDS011;3622;53.576;9.978;2022-11-15T13:17:38;18.83;;;9.07;;
7160;SDS011;3622;53.576;9.978;2022-11-15T13:22:49;12.53;;;9.40;;
7160;SDS011;3622;53.576;9.978;2022-11-15T13:30:40;12.60;;;9.27;;
7160;SDS011;3622;53.576;9.978;2022-11-15T13:33:13;18.53;;;10.53;;
7160;SDS011;3622;53.576;9.978;2022-11-15T13:35:41;14.20;;;9.23;;
7160;SDS011;3622;53.576;9.978;2022-11-15T13:41:18;15.20;;;8.70;;
7160;SDS011;3622;53.576;9.978;2022-11-15T13:43:45;17.73;;;9.00;;
7160;SDS011;3622;53.576;9.978;2022-11-15T13:48:37;16.17;;;9.40;;
7160;SDS011;3622;53.576;9.978;2022-11-15T13:51:05;12.73;;;8.63;;
7160;SDS011;3622;53.576;9.978;2022-11-15T13:53:32;15.63;;;8.97;;
7160;SDS011;3622;53.576;9.978;2022-11-15T13:55:58;21.30;;;9.40;;
7160;SDS011;3622;53.576;9.978;2022-11-15T13:58:24;14.20;;;8.60;;
7160;SDS011;3622;53.576;9.978;2022-11-15T14:00:58;11.50;;;8.63;;
7160;SDS011;3622;53.576;9.978;2022-11-15T14:03:25;13.23;;;8.70;;
7160;SDS011;3622;53.576;9.978;2022-11-15T14:06:06;15.30;;;9.60;;
7160;SDS011;3622;53.576;9.978;2022-11-15T14:08:33;11.80;;;8.73;;
7160;SDS011;3622;53.576;9.978;2022-11-15T14:11:07;12.27;;;7.93;;
7160;SDS011;3622;53.576;9.978;2022-11-15T14:13:33;16.33;;;9.00;;
7160;SDS011;3622;53.576;9.978;2022-11-15T14:16:15;11.87;;;7.70;;
7160;SDS011;3622;53.576;9.978;2022-11-15T14:21:07;11.80;;;9.20;;
7160;SDS011;3622;53.576;9.978;2022-11-15T14:23:34;13.00;;;9.30;;
7160;SDS011;3622;53.576;9.978;2022-11-15T14:25:59;13.43;;;8.70;;
7160;SDS011;3622;53.576;9.978;2022-11-15T14:30:52;13.87;;;8.50;;
7160;SDS011;3622;53.576;9.978;2022-11-15T14:33:22;15.83;;;9.10;;
7160;SDS011;3622;53.576;9.978;2022-11-15T14:35:50;12.60;;;8.63;;
7160;SDS011;3622;53.576;9.978;2022-11-15T14:38:16;14.70;;;9.30;;
7160;SDS011;3622;53.576;9.978;2022-11-15T14:40:42;13.20;;;9.20;;
7160;SDS011;3622;53.576;9.978;2022-11-15T14:43:12;11.43;;;8.07;;
7160;SDS011;3622;53.576;9.978;2022-11-15T14:45:38;13.13;;;8.63;;
7160;SDS011;3622;53.576;9.978;2022-11-15T14:48:04;13.50;;;9.33;;
7160;SDS011;3622;53.576;9.978;2022-11-15T14:50:31;14.00;;;9.00;;
7160;SDS011;3622;53.576;9.978;2022-11-15T14:52:57;14.93;;;8.70;;
7160;SDS011;3622;53.576;9.978;2022-11-15T14:55:25;13.20;;;8.77;;
7160;SDS011;3622;53.576;9.978;2022-11-15T14:57:52;13.37;;;8.90;;
7160;SDS011;3622;53.576;9.978;2022-11-15T15:00:18;17.97;;;9.10;;
7160;SDS011;3622;53.576;9.978;2022-11-15T15:02:45;10.80;;;8.50;;
7160;SDS011;3622;53.576;9.978;2022-11-15T15:07:40;11.47;;;8.60;;
7160;SDS011;3622;53.576;9.978;2022-11-15T15:10:07;13.70;;;8.70;;
7160;SDS011;3622;53.576;9.978;2022-11-15T15:12:33;14.00;;;9.07;;
7160;SDS011;3622;53.576;9.978;2022-11-15T15:14:59;13.20;;;9.10;;
7160;SDS011;3622;53.576;9.978;2022-11-15T15:17:25;14.00;;;9.27;;
7160;SDS011;3622;53.576;9.978;2022-11-15T15:19:51;14.17;;;8.90;;
7160;SDS011;3622;53.576;9.978;2022-11-15T15:22:17;12.23;;;8.67;;
7160;SDS011;3622;53.576;9.978;2022-11-15T15:24:44;16.00;;;8.80;;
7160;SDS011;3622;53.576;9.978;2022-11-15T15:27:11;15.80;;;9.70;;
7160;SDS011;3622;53.576;9.978;2022-11-15T15:29:37;13.13;;;9.83;;
7160;SDS011;3622;53.576;9.978;2022-11-15T15:32:03;14.30;;;9.00;;
7160;SDS011;3622;53.576;9.978;2022-11-15T15:34:30;14.67;;;8.87;;
7160;SDS011;3622;53.576;9.978;2022-11-15T15:39:40;16.90;;;9.07;;
7160;SDS011;3622;53.576;9.978;2022-11-15T15:42:06;13.70;;;8.70;;
7160;SDS011;3622;53.576;9.978;2022-11-15T15:44:32;17.10;;;8.67;;
7160;SDS011;3622;53.576;9.978;2022-11-15T15:46:58;14.53;;;8.93;;
7160;SDS011;3622;53.576;9.978;2022-11-15T15:49:24;13.33;;;8.83;;
7160;SDS011;3622;53.576;9.978;2022-11-15T15:51:50;14.53;;;8.90;;
7160;SDS011;3622;53.576;9.978;2022-11-15T15:54:16;13.93;;;9.90;;
7160;SDS011;3622;53.576;9.978;2022-11-15T15:56:42;15.50;;;10.40;;
7160;SDS011;3622;53.576;9.978;2022-11-15T15:59:08;15.87;;;9.37;;
7160;SDS011;3622;53.576;9.978;2022-11-15T16:01:34;11.63;;;8.30;;
7160;SDS011;3622;53.576;9.978;2022-11-15T16:04:00;15.03;;;9.23;;
7160;SDS011;3622;53.576;9.978;2022-11-15T16:06:32;12.50;;;8.87;;
7160;SDS011;3622;53.576;9.978;2022-11-15T16:08:59;15.73;;;9.30;;
7160;SDS011;3622;53.576;9.978;2022-11-15T16:11:25;14.63;;;9.80;;
7160;SDS011;3622;53.576;9.978;2022-11-15T16:13:52;13.27;;;8.90;;
7160;SDS011;3622;53.576;9.978;2022-11-15T16:16:18;15.10;;;10.07;;
7160;SDS011;3622;53.576;9.978;2022-11-15T16:18:45;14.83;;;9.40;;
7160;SDS011;3622;53.576;9.978;2022-11-15T16:21:11;15.07;;;9.30;;
7160;SDS011;3622;53.576;9.978;2022-11-15T16:23:37;16.53;;;9.80;;
7160;SDS011;3622;53.576;9.978;2022-11-15T16:26:04;12.90;;;9.10;;
7160;SDS011;3622;53.576;9.978;2022-11-15T16:28:36;13.33;;;8.83;;
7160;SDS011;3622;53.576;9.978;2022-11-15T16:31:03;14.07;;;9.33;;
7160;SDS011;3622;53.576;9.978;2022-11-15T16:33:30;16.53;;;8.97;;
7160;SDS011;3622;53.576;9.978;2022-11-15T16:35:56;14.77;;;8.63;;
7160;SDS011;3622;53.576;9.978;2022-11-15T16:38:22;15.57;;;9.33;;
7160;SDS011;3622;53.576;9.978;2022-11-15T16:40:48;13.47;;;9.50;;
7160;SDS011;3622;53.576;9.978;2022-11-15T16:43:14;13.87;;;9.50;;
7160;SDS011;3622;53.576;9.978;2022-11-15T16:45:40;13.33;;;9.90;;
7160;SDS011;3622;53.576;9.978;2022-11-15T16:48:07;16.87;;;9.33;;
7160;SDS011;3622;53.576;9.978;2022-11-15T16:50:40;14.67;;;9.43;;
7160;SDS011;3622;53.576;9.978;2022-11-15T16:53:07;17.83;;;9.77;;
7160;SDS011;3622;53.576;9.978;2022-11-15T16:55:33;19.70;;;11.80;;
7160;SDS011;3622;53.576;9.978;2022-11-15T16:57:59;14.17;;;9.53;;
7160;SDS011;3622;53.576;9.978;2022-11-15T17:00:25;13.43;;;8.20;;
7160;SDS011;3622;53.576;9.978;2022-11-15T17:02:52;17.23;;;9.87;;
7160;SDS011;3622;53.576;9.978;2022-11-15T17:05:20;19.43;;;10.10;;